Time,TemperatureF,DewpointF,PressureIn,WindDirection,WindDirectionDegrees,WindSpeedMPH,WindSpeedGustMPH,Humidity,HourlyPrecipIn,Conditions,Clouds,dailyrainin,SoftwareType,DateUTC
2013-08-23 00:01:00,66.0,64.8,30.03,WSW,248,0.0,0.0,96,0.00,,,0.00,WUHU216DAVISVP2,2013-08-23 04:01:00,
2013-08-23 00:06:00,66.0,64.8,30.03,WSW,248,0.0,0.0,96,0.00,,,0.00,WUHU216DAVISVP2,2013-08-23 04:06:00,
2013-08-23 00:11:00,66.0,64.8,30.03,WSW,248,0.0,0.0,96,0.00,,,0.00,WUHU216DAVISVP2,2013-08-23 04:11:00,
2013-08-23 00:16:00,66.1,64.9,30.03,WSW,248,0.0,0.0,96,0.00,,,0.00,WUHU216DAVISVP2,2013-08-23 04:16:00,
2013-08-23 00:21:00,66.2,65.0,30.03,WSW,248,0.0,0.0,96,0.00,,,0.00,WUHU216DAVISVP2,2013-08-23 04:21:00,
2013-08-23 00:26:00,66.2,65.0,30.03,WSW,248,0.0,0.0,96,0.00,,,0.00,WUHU216DAVISVP2,2013-08-23 04:26:00,
2013-08-23 00:31:00,66.2,65.0,30.03,WSW,248,0.0,0.0,96,0.00,,,0.00,WUHU216DAVISVP2,2013-08-23 04:31:00,
2013-08-23 00:36:00,66.2,65.0,30.03,WSW,248,0.0,0.0,96,0.00,,,0.00,WUHU216DAVISVP2,2013-08-23 04:36:00,
2013-08-23 00:41:00,66.2,65.0,30.03,WSW,248,0.0,0.0,96,0.00,,,0.00,WUHU216DAVISVP2,2013-08-23 04:41:00,
2013-08-23 00:46:00,66.1,64.9,30.02,WSW,248,0.0,0.0,96,0.00,,,0.00,WUHU216DAVISVP2,2013-08-23 04:46:00,
2013-08-23 00:51:00,66.1,64.9,30.03,WSW,248,0.0,0.0,96,0.00,,,0.00,WUHU216DAVISVP2,2013-08-23 04:51:00,
2013-08-23 00:56:00,66.0,64.8,30.02,WSW,248,0.0,0.0,96,0.00,,,0.00,WUHU216DAVISVP2,2013-08-23 04:56:00,
2013-08-23 01:01:00,66.0,64.8,30.02,WSW,248,0.0,0.0,96,0.00,,,0.00,WUHU216DAVISVP2,2013-08-23 05:01:00,
2013-08-23 01:06:00,66.0,64.8,30.02,WSW,248,0.0,0.0,96,0.00,,,0.00,WUHU216DAVISVP2,2013-08-23 05:06:00,
2013-08-23 01:11:00,65.9,64.7,30.02,WSW,248,0.0,0.0,96,0.00,,,0.00,WUHU216DAVISVP2,2013-08-23 05:11:00,
2013-08-23 01:16:00,66.0,64.8,30.02,WSW,248,0.0,0.0,96,0.00,,,0.00,WUHU216DAVISVP2,2013-08-23 05:16:00,
2013-08-23 01:21:00,66.0,64.8,30.02,WSW,248,0.0,0.0,96,0.00,,,0.00,WUHU216DAVISVP2,2013-08-23 05:21:00,
2013-08-23 01:26:00,66.0,64.8,30.02,WSW,248,0.0,0.0,96,0.00,,,0.00,WUHU216DAVISVP2,2013-08-23 05:26:00,
2013-08-23 01:31:00,66.0,64.8,30.02,WSW,248,0.0,0.0,96,0.00,,,0.00,WUHU216DAVISVP2,2013-08-23 05:31:00,
2013-08-23 01:36:00,66.0,64.8,30.01,WSW,248,0.0,1.0,96,0.00,,,0.00,WUHU216DAVISVP2,2013-08-23 05:36:00,
2013-08-23 01:41:00,66.0,64.8,30.00,WSW,248,0.0,1.0,96,0.00,,,0.00,WUHU216DAVISVP2,2013-08-23 05:41:00,
2013-08-23 01:46:00,66.0,64.8,30.00,WSW,248,1.0,1.0,96,0.00,,,0.00,WUHU216DAVISVP2,2013-08-23 05:46:00,
2013-08-23 01:51:00,66.0,64.8,30.00,WSW,248,0.0,1.0,96,0.00,,,0.00,WUHU216DAVISVP2,2013-08-23 05:51:00,
2013-08-23 01:56:00,65.9,64.7,30.00,WSW,248,0.0,1.0,96,0.00,,,0.00,WUHU216DAVISVP2,2013-08-23 05:56:00,
2013-08-23 02:01:00,65.9,64.7,29.99,WSW,248,0.0,1.0,96,0.00,,,0.00,WUHU216DAVISVP2,2013-08-23 06:01:00,
2013-08-23 02:06:00,65.8,64.6,29.99,WSW,248,0.0,0.0,96,0.00,,,0.00,WUHU216DAVISVP2,2013-08-23 06:06:00,
2013-08-23 02:11:00,65.8,64.6,29.99,WSW,248,0.0,0.0,96,0.00,,,0.00,WUHU216DAVISVP2,2013-08-23 06:11:00,
2013-08-23 02:16:00,65.8,64.6,29.99,WSW,248,0.0,0.0,96,0.00,,,0.00,WUHU216DAVISVP2,2013-08-23 06:16:00,
2013-08-23 02:21:00,65.8,64.6,29.99,WSW,248,0.0,0.0,96,0.00,,,0.00,WUHU216DAVISVP2,2013-08-23 06:21:00,
2013-08-23 02:26:00,65.7,64.5,29.99,WSW,248,0.0,0.0,96,0.00,,,0.00,WUHU216DAVISVP2,2013-08-23 06:26:00,
2013-08-23 02:31:00,65.7,64.5,29.99,WSW,248,0.0,0.0,96,0.00,,,0.00,WUHU216DAVISVP2,2013-08-23 06:31:00,
2013-08-23 02:36:00,65.7,64.5,29.99,WSW,248,0.0,0.0,96,0.00,,,0.00,WUHU216DAVISVP2,2013-08-23 06:36:00,
2013-08-23 02:41:00,65.6,64.4,29.99,WSW,248,0.0,0.0,96,0.00,,,0.00,WUHU216DAVISVP2,2013-08-23 06:41:00,
2013-08-23 02:46:00,65.6,64.4,29.99,WSW,248,0.0,0.0,96,0.00,,,0.00,WUHU216DAVISVP2,2013-08-23 06:46:00,
2013-08-23 02:51:00,65.5,64.3,29.99,WSW,248,0.0,0.0,96,0.00,,,0.00,WUHU216DAVISVP2,2013-08-23 06:51:00,
2013-08-23 02:56:00,65.5,64.3,29.99,WSW,248,0.0,0.0,96,0.00,,,0.00,WUHU216DAVISVP2,2013-08-23 06:56:00,
2013-08-23 03:01:00,65.6,64.4,29.99,WSW,248,0.0,0.0,96,0.00,,,0.00,WUHU216DAVISVP2,2013-08-23 07:01:00,
2013-08-23 03:06:00,65.6,64.4,29.99,WSW,248,0.0,0.0,96,0.00,,,0.00,WUHU216DAVISVP2,2013-08-23 07:06:00,
2013-08-23 03:11:00,65.6,64.4,29.99,WSW,248,0.0,0.0,96,0.00,,,0.00,WUHU216DAVISVP2,2013-08-23 07:11:00,
2013-08-23 03:16:00,65.6,64.4,29.99,WSW,248,0.0,0.0,96,0.00,,,0.00,WUHU216DAVISVP2,2013-08-23 07:16:00,
2013-08-23 03:21:00,65.6,64.4,29.99,WSW,248,0.0,0.0,96,0.00,,,0.00,WUHU216DAVISVP2,2013-08-23 07:21:00,
2013-08-23 03:26:00,65.6,64.4,29.99,WSW,248,0.0,0.0,96,0.00,,,0.00,WUHU216DAVISVP2,2013-08-23 07:26:00,
2013-08-23 03:31:00,65.6,64.4,29.99,WSW,248,0.0,0.0,96,0.00,,,0.00,WUHU216DAVISVP2,2013-08-23 07:31:00,
2013-08-23 03:36:00,65.7,64.5,29.99,WSW,248,0.0,0.0,96,0.00,,,0.00,WUHU216DAVISVP2,2013-08-23 07:36:00,
2013-08-23 03:41:00,65.7,64.5,29.99,WSW,248,0.0,0.0,96,0.00,,,0.00,WUHU216DAVISVP2,2013-08-23 07:41:00,
2013-08-23 03:46:00,65.7,64.5,29.99,WSW,248,0.0,0.0,96,0.00,,,0.00,WUHU216DAVISVP2,2013-08-23 07:46:00,
2013-08-23 03:51:00,65.6,64.4,29.99,WSW,248,0.0,1.0,96,0.00,,,0.00,WUHU216DAVISVP2,2013-08-23 07:51:00,
2013-08-23 03:56:00,65.6,64.4,29.99,WSW,248,0.0,1.0,96,0.00,,,0.00,WUHU216DAVISVP2,2013-08-23 07:56:00,
2013-08-23 04:01:00,65.6,64.4,29.99,WSW,248,0.0,1.0,96,0.00,,,0.00,WUHU216DAVISVP2,2013-08-23 08:01:00,
2013-08-23 04:06:00,65.6,64.4,29.99,WSW,248,0.0,1.0,96,0.00,,,0.00,WUHU216DAVISVP2,2013-08-23 08:06:00,
2013-08-23 04:11:00,65.6,64.4,29.98,WSW,248,0.0,0.0,96,0.00,,,0.00,WUHU216DAVISVP2,2013-08-23 08:11:00,
2013-08-23 04:16:00,65.6,64.4,29.98,WSW,248,0.0,0.0,96,0.00,,,0.00,WUHU216DAVISVP2,2013-08-23 08:16:00,
2013-08-23 04:21:00,65.6,64.4,29.98,WSW,248,0.0,0.0,96,0.00,,,0.00,WUHU216DAVISVP2,2013-08-23 08:21:00,
2013-08-23 04:26:00,65.6,64.4,29.98,WSW,248,0.0,0.0,96,0.00,,,0.00,WUHU216DAVISVP2,2013-08-23 08:26:00,
2013-08-23 04:31:00,65.6,64.4,29.98,WSW,248,0.0,0.0,96,0.00,,,0.00,WUHU216DAVISVP2,2013-08-23 08:31:00,
2013-08-23 04:36:00,65.6,64.4,29.98,WSW,248,0.0,0.0,96,0.00,,,0.00,WUHU216DAVISVP2,2013-08-23 08:36:00,
2013-08-23 04:41:00,65.7,64.5,29.99,WSW,248,1.0,1.0,96,0.00,,,0.00,WUHU216DAVISVP2,2013-08-23 08:41:00,
2013-08-23 04:46:00,65.7,64.5,29.99,WSW,249,0.0,1.0,96,0.04,,,0.04,WUHU216DAVISVP2,2013-08-23 08:46:00,
2013-08-23 04:51:00,65.8,64.6,29.99,WSW,249,0.0,1.0,96,0.08,,,0.08,WUHU216DAVISVP2,2013-08-23 08:51:00,
2013-08-23 04:56:00,65.8,64.6,29.98,SSE,156,0.0,1.0,96,0.10,,,0.10,WUHU216DAVISVP2,2013-08-23 08:56:00,
2013-08-23 05:01:00,65.7,64.5,29.98,SSE,156,0.0,1.0,96,0.10,,,0.10,WUHU216DAVISVP2,2013-08-23 09:01:00,
2013-08-23 05:06:00,65.7,64.5,29.98,East,97,0.0,1.0,96,0.10,,,0.10,WUHU216DAVISVP2,2013-08-23 09:06:00,
2013-08-23 05:11:00,65.6,64.4,29.98,East,98,0.0,1.0,96,0.10,,,0.10,WUHU216DAVISVP2,2013-08-23 09:11:00,
2013-08-23 05:16:00,65.6,64.4,29.99,East,98,0.0,1.0,96,0.10,,,0.10,WUHU216DAVISVP2,2013-08-23 09:16:00,
2013-08-23 05:21:00,65.6,64.4,29.99,East,97,0.0,1.0,96,0.10,,,0.10,WUHU216DAVISVP2,2013-08-23 09:21:00,
2013-08-23 05:26:00,65.6,64.4,29.99,East,97,0.0,0.0,96,0.10,,,0.10,WUHU216DAVISVP2,2013-08-23 09:26:00,
2013-08-23 05:31:00,65.6,64.4,29.99,East,98,0.0,0.0,96,0.10,,,0.10,WUHU216DAVISVP2,2013-08-23 09:31:00,
2013-08-23 05:36:00,65.6,64.4,29.99,East,97,0.0,0.0,96,0.10,,,0.10,WUHU216DAVISVP2,2013-08-23 09:36:00,
2013-08-23 05:41:00,65.6,64.4,30.00,East,98,1.0,1.0,96,0.10,,,0.10,WUHU216DAVISVP2,2013-08-23 09:41:00,
2013-08-23 05:46:00,65.7,64.5,30.00,East,91,1.0,1.0,96,0.07,,,0.11,WUHU216DAVISVP2,2013-08-23 09:46:00,
2013-08-23 05:51:00,65.8,64.3,30.00,ESE,114,1.3,3.0,95,0.10,,,0.18,WUHU216DAVISVP2,2013-08-23 09:51:00,
2013-08-23 05:56:00,65.8,64.6,30.00,East,100,1.0,3.0,96,0.10,,,0.20,WUHU216DAVISVP2,2013-08-23 09:56:00,
2013-08-23 06:01:00,65.8,64.6,30.01,NW,316,1.0,3.0,96,0.14,,,0.24,WUHU216DAVISVP2,2013-08-23 10:01:00,
2013-08-23 06:06:00,65.9,64.7,30.00,NW,318,0.0,3.0,96,0.18,,,0.28,WUHU216DAVISVP2,2013-08-23 10:06:00,
2013-08-23 06:11:00,65.9,64.7,30.00,ESE,120,1.3,2.0,96,0.26,,,0.36,WUHU216DAVISVP2,2013-08-23 10:11:00,
2013-08-23 06:16:00,65.8,64.6,29.99,ENE,61,1.4,3.0,96,0.29,,,0.39,WUHU216DAVISVP2,2013-08-23 10:16:00,
2013-08-23 06:21:00,65.8,64.6,30.00,North,10,0.0,3.0,96,0.30,,,0.40,WUHU216DAVISVP2,2013-08-23 10:21:00,
2013-08-23 06:26:00,65.7,64.5,30.00,North,11,1.0,2.0,96,0.30,,,0.40,WUHU216DAVISVP2,2013-08-23 10:26:00,
2013-08-23 06:31:00,65.6,64.4,30.00,North,11,0.0,2.0,96,0.30,,,0.40,WUHU216DAVISVP2,2013-08-23 10:31:00,
2013-08-23 06:36:00,65.6,64.4,30.00,North,11,0.0,1.0,96,0.30,,,0.40,WUHU216DAVISVP2,2013-08-23 10:36:00,
2013-08-23 06:41:00,65.5,64.3,30.00,North,10,0.0,1.0,96,0.30,,,0.40,WUHU216DAVISVP2,2013-08-23 10:41:00,
2013-08-23 06:46:00,65.5,64.3,30.00,North,11,0.0,0.0,96,0.28,,,0.40,WUHU216DAVISVP2,2013-08-23 10:46:00,
2013-08-23 06:51:00,65.4,64.2,30.00,North,11,0.0,0.0,96,0.22,,,0.40,WUHU216DAVISVP2,2013-08-23 10:51:00,
2013-08-23 06:56:00,65.3,64.1,30.00,North,11,0.0,0.0,96,0.20,,,0.40,WUHU216DAVISVP2,2013-08-23 10:56:00,
2013-08-23 07:01:00,65.2,64.0,30.00,North,11,0.0,0.0,96,0.16,,,0.40,WUHU216DAVISVP2,2013-08-23 11:01:00,
2013-08-23 07:06:00,65.2,64.0,30.00,North,11,0.0,0.0,96,0.12,,,0.40,WUHU216DAVISVP2,2013-08-23 11:06:00,
2013-08-23 07:11:00,65.1,63.9,30.00,North,10,0.0,0.0,96,0.03,,,0.40,WUHU216DAVISVP2,2013-08-23 11:11:00,
2013-08-23 07:16:00,65.0,63.8,30.00,North,11,0.0,0.0,96,0.01,,,0.40,WUHU216DAVISVP2,2013-08-23 11:16:00,
2013-08-23 07:21:00,64.9,63.7,30.00,North,10,0.0,0.0,96,0.00,,,0.40,WUHU216DAVISVP2,2013-08-23 11:21:00,
2013-08-23 07:26:00,64.9,63.7,30.01,North,10,0.0,0.0,96,0.00,,,0.40,WUHU216DAVISVP2,2013-08-23 11:26:00,
2013-08-23 07:31:00,65.0,63.8,30.01,North,11,0.0,0.0,96,0.00,,,0.40,WUHU216DAVISVP2,2013-08-23 11:31:00,
2013-08-23 07:36:00,65.0,63.8,30.01,North,10,0.0,0.0,96,0.00,,,0.40,WUHU216DAVISVP2,2013-08-23 11:36:00,
2013-08-23 07:41:00,65.2,64.0,30.01,North,11,0.0,0.0,96,0.00,,,0.40,WUHU216DAVISVP2,2013-08-23 11:41:00,
2013-08-23 07:46:00,65.2,64.0,30.01,North,11,0.0,0.0,96,0.00,,,0.40,WUHU216DAVISVP2,2013-08-23 11:46:00,
2013-08-23 07:51:00,65.4,64.2,30.00,North,11,0.0,0.0,96,0.00,,,0.40,WUHU216DAVISVP2,2013-08-23 11:51:00,
2013-08-23 07:56:00,65.5,64.3,30.01,North,11,0.0,0.0,96,0.00,,,0.40,WUHU216DAVISVP2,2013-08-23 11:56:00,
2013-08-23 08:01:00,65.6,64.4,30.01,North,11,0.0,0.0,96,0.00,,,0.40,WUHU216DAVISVP2,2013-08-23 12:01:00,
2013-08-23 08:06:00,65.7,64.5,30.01,North,10,0.0,0.0,96,0.00,,,0.40,WUHU216DAVISVP2,2013-08-23 12:06:00,
2013-08-23 08:11:00,65.8,64.6,30.01,North,10,0.0,0.0,96,0.00,,,0.40,WUHU216DAVISVP2,2013-08-23 12:11:00,
2013-08-23 08:16:00,66.0,64.5,30.01,North,11,0.0,0.0,95,0.00,,,0.40,WUHU216DAVISVP2,2013-08-23 12:16:00,
2013-08-23 08:21:00,66.3,64.8,30.01,North,11,0.0,0.0,95,0.00,,,0.40,WUHU216DAVISVP2,2013-08-23 12:21:00,
2013-08-23 08:26:00,66.6,65.1,30.01,North,10,0.0,1.0,95,0.00,,,0.40,WUHU216DAVISVP2,2013-08-23 12:26:00,
2013-08-23 08:31:00,66.6,65.1,30.01,North,11,0.0,1.0,95,0.00,,,0.40,WUHU216DAVISVP2,2013-08-23 12:31:00,
2013-08-23 08:36:00,66.6,65.4,30.01,North,11,1.0,1.0,96,0.00,,,0.40,WUHU216DAVISVP2,2013-08-23 12:36:00,
2013-08-23 08:41:00,66.7,65.5,30.01,North,11,0.0,1.0,96,0.00,,,0.40,WUHU216DAVISVP2,2013-08-23 12:41:00,
2013-08-23 08:46:00,66.8,65.6,30.02,North,11,1.0,1.0,96,0.00,,,0.40,WUHU216DAVISVP2,2013-08-23 12:46:00,
2013-08-23 08:51:00,67.0,65.8,30.02,North,10,0.0,1.0,96,0.00,,,0.40,WUHU216DAVISVP2,2013-08-23 12:51:00,
2013-08-23 08:56:00,67.2,66.0,30.02,North,10,0.0,1.0,96,0.00,,,0.40,WUHU216DAVISVP2,2013-08-23 12:56:00,
2013-08-23 09:01:00,67.4,66.2,30.02,North,10,0.0,1.0,96,0.00,,,0.40,WUHU216DAVISVP2,2013-08-23 13:01:00,
2013-08-23 09:06:00,67.5,66.3,30.02,North,11,0.0,0.0,96,0.00,,,0.40,WUHU216DAVISVP2,2013-08-23 13:06:00,
2013-08-23 09:11:00,67.6,66.4,30.02,North,11,0.0,0.0,96,0.00,,,0.40,WUHU216DAVISVP2,2013-08-23 13:11:00,
2013-08-23 09:16:00,68.0,66.8,30.02,SW,217,0.0,0.0,96,0.00,,,0.40,WUHU216DAVISVP2,2013-08-23 13:16:00,
2013-08-23 09:21:00,68.1,66.9,30.02,SW,216,0.0,1.0,96,0.00,,,0.40,WUHU216DAVISVP2,2013-08-23 13:21:00,
2013-08-23 09:26:00,68.2,67.0,30.02,SW,215,0.0,1.0,96,0.00,,,0.40,WUHU216DAVISVP2,2013-08-23 13:26:00,
2013-08-23 09:31:00,68.2,67.0,30.02,SW,216,1.0,1.0,96,0.00,,,0.40,WUHU216DAVISVP2,2013-08-23 13:31:00,
2013-08-23 09:36:00,68.2,67.0,30.02,SW,228,1.0,1.0,96,0.00,,,0.40,WUHU216DAVISVP2,2013-08-23 13:36:00,
2013-08-23 09:41:00,68.4,67.2,30.02,SW,229,1.0,1.0,96,0.00,,,0.40,WUHU216DAVISVP2,2013-08-23 13:41:00,
2013-08-23 09:46:00,68.6,67.4,30.03,SW,229,1.0,1.0,96,0.00,,,0.40,WUHU216DAVISVP2,2013-08-23 13:46:00,
2013-08-23 09:51:00,68.9,67.7,30.03,SW,229,1.0,1.0,96,0.00,,,0.40,WUHU216DAVISVP2,2013-08-23 13:51:00,
2013-08-23 09:56:00,69.4,67.9,30.03,SW,229,1.0,1.0,95,0.00,,,0.40,WUHU216DAVISVP2,2013-08-23 13:56:00,
2013-08-23 10:01:00,69.4,67.9,30.03,ENE,57,1.0,2.0,95,0.00,,,0.40,WUHU216DAVISVP2,2013-08-23 14:01:00,
2013-08-23 10:06:00,70.1,68.3,30.03,NE,51,2.0,2.0,94,0.00,,,0.40,WUHU216DAVISVP2,2013-08-23 14:06:00,
2013-08-23 10:11:00,70.6,68.4,30.03,NW,309,1.3,2.0,93,0.00,,,0.40,WUHU216DAVISVP2,2013-08-23 14:11:00,
2013-08-23 10:16:00,70.9,68.4,30.03,North,9,1.3,3.0,92,0.00,,,0.40,WUHU216DAVISVP2,2013-08-23 14:16:00,
2013-08-23 10:21:00,70.9,68.1,30.03,West,274,1.8,4.0,91,0.00,,,0.40,WUHU216DAVISVP2,2013-08-23 14:21:00,
2013-08-23 10:26:00,70.8,67.7,30.03,NW,322,1.3,4.0,90,0.00,,,0.40,WUHU216DAVISVP2,2013-08-23 14:26:00,
2013-08-23 10:31:00,70.6,67.5,30.03,ENE,73,1.5,3.0,90,0.00,,,0.40,WUHU216DAVISVP2,2013-08-23 14:31:00,
2013-08-23 10:36:00,70.5,67.7,30.04,East,79,1.1,3.0,91,0.00,,,0.40,WUHU216DAVISVP2,2013-08-23 14:36:00,
2013-08-23 10:41:00,70.5,67.7,30.03,ENE,64,2.0,3.0,91,0.00,,,0.40,WUHU216DAVISVP2,2013-08-23 14:41:00,
2013-08-23 10:46:00,70.3,67.2,30.04,East,84,2.0,3.0,90,0.00,,,0.40,WUHU216DAVISVP2,2013-08-23 14:46:00,
2013-08-23 10:51:00,70.3,67.8,30.04,East,82,1.0,3.0,92,0.00,,,0.40,WUHU216DAVISVP2,2013-08-23 14:51:00,
2013-08-23 10:56:00,70.4,67.3,30.03,ENE,59,1.0,3.0,90,0.00,,,0.40,WUHU216DAVISVP2,2013-08-23 14:56:00,
2013-08-23 11:01:00,70.8,68.0,30.03,North,4,2.0,3.0,91,0.00,,,0.40,WUHU216DAVISVP2,2013-08-23 15:01:00,
2013-08-23 11:06:00,71.1,68.0,30.03,North,1,1.0,2.0,90,0.00,,,0.40,WUHU216DAVISVP2,2013-08-23 15:06:00,
2013-08-23 11:11:00,71.3,68.2,30.03,NE,36,1.0,3.0,90,0.00,,,0.40,WUHU216DAVISVP2,2013-08-23 15:11:00,
2013-08-23 11:16:00,72.0,69.2,30.03,NW,311,1.0,3.0,91,0.00,,,0.40,WUHU216DAVISVP2,2013-08-23 15:16:00,
2013-08-23 11:21:00,72.6,69.2,30.03,NW,306,0.0,3.0,89,0.00,,,0.40,WUHU216DAVISVP2,2013-08-23 15:21:00,
2013-08-23 11:26:00,72.5,68.4,30.03,NNE,14,1.1,3.0,87,0.00,,,0.40,WUHU216DAVISVP2,2013-08-23 15:26:00,
2013-08-23 11:31:00,73.0,69.2,30.03,NNW,346,1.0,3.0,88,0.00,,,0.40,WUHU216DAVISVP2,2013-08-23 15:31:00,
2013-08-23 11:36:00,73.4,70.0,30.03,North,353,1.1,3.0,89,0.00,,,0.40,WUHU216DAVISVP2,2013-08-23 15:36:00,
2013-08-23 11:41:00,73.8,68.7,30.03,ENE,73,2.3,4.0,84,0.00,,,0.40,WUHU216DAVISVP2,2013-08-23 15:41:00,
2013-08-23 11:46:00,73.5,68.7,30.03,East,93,2.1,4.0,85,0.00,,,0.40,WUHU216DAVISVP2,2013-08-23 15:46:00,
2013-08-23 11:51:00,73.2,68.5,30.03,East,88,0.0,4.0,85,0.00,,,0.40,WUHU216DAVISVP2,2013-08-23 15:51:00,
2013-08-23 11:56:00,73.4,68.3,30.03,SE,131,1.0,4.0,84,0.00,,,0.40,WUHU216DAVISVP2,2013-08-23 15:56:00,
2013-08-23 12:01:00,74.0,68.6,30.03,West,271,1.5,4.0,83,0.00,,,0.40,WUHU216DAVISVP2,2013-08-23 16:01:00,
2013-08-23 12:06:00,74.7,68.9,30.03,ENE,64,2.0,4.0,82,0.00,,,0.40,WUHU216DAVISVP2,2013-08-23 16:06:00,
2013-08-23 12:11:00,74.7,68.2,30.03,NNW,336,1.0,5.0,80,0.00,,,0.40,WUHU216DAVISVP2,2013-08-23 16:11:00,
2013-08-23 12:16:00,75.0,68.9,30.03,NNE,12,2.0,5.0,81,0.00,,,0.40,WUHU216DAVISVP2,2013-08-23 16:16:00,
2013-08-23 12:21:00,74.9,69.4,30.03,ENE,68,1.8,4.0,83,0.00,,,0.40,WUHU216DAVISVP2,2013-08-23 16:21:00,
2013-08-23 12:26:00,75.0,68.9,30.03,NNE,27,1.3,4.0,81,0.00,,,0.40,WUHU216DAVISVP2,2013-08-23 16:26:00,
2013-08-23 12:31:00,75.5,69.0,30.03,SW,236,3.0,3.0,80,0.00,,,0.40,WUHU216DAVISVP2,2013-08-23 16:31:00,
2013-08-23 12:36:00,75.9,69.4,30.02,WNW,299,4.0,4.0,80,0.00,,,0.40,WUHU216DAVISVP2,2013-08-23 16:36:00,
2013-08-23 12:41:00,76.0,69.1,30.02,NW,306,3.0,5.0,79,0.00,,,0.40,WUHU216DAVISVP2,2013-08-23 16:41:00,
2013-08-23 12:46:00,75.9,69.4,30.02,NW,305,1.9,5.0,80,0.00,,,0.40,WUHU216DAVISVP2,2013-08-23 16:46:00,
2013-08-23 12:51:00,76.0,69.1,30.03,ENE,77,2.0,5.0,79,0.00,,,0.40,WUHU216DAVISVP2,2013-08-23 16:51:00,
2013-08-23 12:56:00,75.6,68.7,30.03,NE,46,1.0,5.0,79,0.00,,,0.40,WUHU216DAVISVP2,2013-08-23 16:56:00,
2013-08-23 13:01:00,75.3,68.4,30.03,NNW,335,1.0,4.0,79,0.00,,,0.40,WUHU216DAVISVP2,2013-08-23 17:01:00,
2013-08-23 13:06:00,75.2,69.1,30.03,East,91,1.0,3.0,81,0.00,,,0.40,WUHU216DAVISVP2,2013-08-23 17:06:00,
2013-08-23 13:11:00,75.4,68.9,30.02,WNW,303,1.3,3.0,80,0.00,,,0.40,WUHU216DAVISVP2,2013-08-23 17:11:00,
2013-08-23 13:16:00,75.4,68.5,30.02,West,268,1.0,3.0,79,0.00,,,0.40,WUHU216DAVISVP2,2013-08-23 17:16:00,
2013-08-23 13:21:00,75.4,69.2,30.02,NE,42,1.0,3.0,81,0.00,,,0.40,WUHU216DAVISVP2,2013-08-23 17:21:00,
2013-08-23 13:26:00,75.5,69.0,30.02,NW,321,1.3,3.0,80,0.00,,,0.40,WUHU216DAVISVP2,2013-08-23 17:26:00,
2013-08-23 13:31:00,75.8,68.9,30.02,WNW,292,1.3,5.0,79,0.00,,,0.40,WUHU216DAVISVP2,2013-08-23 17:31:00,
2013-08-23 13:36:00,76.3,68.7,30.02,WSW,245,1.4,5.0,77,0.00,,,0.40,WUHU216DAVISVP2,2013-08-23 17:36:00,
2013-08-23 13:41:00,77.3,69.3,30.02,WNW,285,2.8,5.0,76,0.00,,,0.40,WUHU216DAVISVP2,2013-08-23 17:41:00,
2013-08-23 13:46:00,77.2,68.4,30.02,WNW,290,2.4,5.0,74,0.00,,,0.40,WUHU216DAVISVP2,2013-08-23 17:46:00,
2013-08-23 13:51:00,77.0,69.0,30.02,WNW,295,2.0,5.0,76,0.00,,,0.40,WUHU216DAVISVP2,2013-08-23 17:51:00,
2013-08-23 13:56:00,75.9,69.0,30.02,WNW,285,2.0,8.0,79,0.00,,,0.40,WUHU216DAVISVP2,2013-08-23 17:56:00,
2013-08-23 14:01:00,75.3,67.7,30.02,NW,326,3.0,8.0,77,0.00,,,0.40,WUHU216DAVISVP2,2013-08-23 18:01:00,
2013-08-23 14:06:00,75.1,68.3,30.02,West,273,2.8,8.0,79,0.00,,,0.40,WUHU216DAVISVP2,2013-08-23 18:06:00,
2013-08-23 14:11:00,75.5,68.3,30.02,WNW,297,4.0,8.0,78,0.00,,,0.40,WUHU216DAVISVP2,2013-08-23 18:11:00,
2013-08-23 14:16:00,76.3,69.8,30.02,WNW,297,3.0,6.0,80,0.00,,,0.40,WUHU216DAVISVP2,2013-08-23 18:16:00,
2013-08-23 14:21:00,76.6,69.0,30.02,West,278,1.7,6.0,77,0.00,,,0.40,WUHU216DAVISVP2,2013-08-23 18:21:00,
2013-08-23 14:26:00,76.7,69.1,30.02,WNW,302,1.8,5.0,77,0.00,,,0.40,WUHU216DAVISVP2,2013-08-23 18:26:00,
2013-08-23 14:31:00,77.1,68.7,30.02,ENE,58,1.0,5.0,75,0.00,,,0.40,WUHU216DAVISVP2,2013-08-23 18:31:00,
2013-08-23 14:36:00,77.5,68.3,30.02,WSW,255,3.0,6.0,73,0.00,,,0.40,WUHU216DAVISVP2,2013-08-23 18:36:00,
2013-08-23 14:41:00,78.0,69.2,30.01,NW,319,3.0,6.0,74,0.00,,,0.40,WUHU216DAVISVP2,2013-08-23 18:41:00,
2013-08-23 14:46:00,78.1,68.9,30.01,NNW,334,1.0,6.0,73,0.00,,,0.40,WUHU216DAVISVP2,2013-08-23 18:46:00,
2013-08-23 14:51:00,78.6,69.4,30.01,NNE,23,1.3,8.0,73,0.00,,,0.40,WUHU216DAVISVP2,2013-08-23 18:51:00,
2013-08-23 14:56:00,79.0,69.2,30.01,WSW,249,5.0,8.0,72,0.00,,,0.40,WUHU216DAVISVP2,2013-08-23 18:56:00,
2013-08-23 15:01:00,79.2,70.4,30.01,WNW,292,1.7,7.0,74,0.00,,,0.40,WUHU216DAVISVP2,2013-08-23 19:01:00,
2013-08-23 15:06:00,79.7,69.9,30.01,WNW,284,3.1,7.0,72,0.00,,,0.40,WUHU216DAVISVP2,2013-08-23 19:06:00,
2013-08-23 15:11:00,79.4,68.8,30.01,NW,315,1.7,5.0,70,0.00,,,0.40,WUHU216DAVISVP2,2013-08-23 19:11:00,
2013-08-23 15:16:00,78.7,69.7,30.01,NW,316,2.0,6.0,74,0.00,,,0.40,WUHU216DAVISVP2,2013-08-23 19:16:00,
2013-08-23 15:21:00,77.9,68.5,30.00,West,276,1.0,6.0,73,0.00,,,0.40,WUHU216DAVISVP2,2013-08-23 19:21:00,
2013-08-23 15:26:00,78.2,69.2,30.00,NW,309,2.0,6.0,74,0.00,,,0.40,WUHU216DAVISVP2,2013-08-23 19:26:00,
2013-08-23 15:31:00,78.6,70.8,30.00,NW,311,1.4,4.0,77,0.00,,,0.40,WUHU216DAVISVP2,2013-08-23 19:31:00,
2013-08-23 15:36:00,79.1,69.7,30.00,WNW,286,2.1,4.0,73,0.00,,,0.40,WUHU216DAVISVP2,2013-08-23 19:36:00,
2013-08-23 15:41:00,79.3,68.7,30.00,SSE,156,1.2,4.0,70,0.00,,,0.40,WUHU216DAVISVP2,2013-08-23 19:41:00,
2013-08-23 15:46:00,79.1,68.5,30.00,NNE,25,1.2,4.0,70,0.00,,,0.40,WUHU216DAVISVP2,2013-08-23 19:46:00,
2013-08-23 15:51:00,77.8,69.6,30.00,ENE,63,3.0,8.0,76,0.00,,,0.40,WUHU216DAVISVP2,2013-08-23 19:51:00,
2013-08-23 15:56:00,74.9,68.3,30.01,ENE,59,3.0,8.0,80,0.03,,,0.43,WUHU216DAVISVP2,2013-08-23 19:56:00,
2013-08-23 16:01:00,73.0,68.2,30.01,East,87,0.0,7.0,85,0.04,,,0.44,WUHU216DAVISVP2,2013-08-23 20:01:00,
2013-08-23 16:06:00,72.3,68.9,30.01,East,87,0.0,7.0,89,0.05,,,0.45,WUHU216DAVISVP2,2013-08-23 20:06:00,
2013-08-23 16:11:00,72.3,69.5,30.01,East,87,1.0,6.0,91,0.05,,,0.45,WUHU216DAVISVP2,2013-08-23 20:11:00,
2013-08-23 16:16:00,72.5,69.7,30.01,NNE,32,0.0,2.0,91,0.05,,,0.45,WUHU216DAVISVP2,2013-08-23 20:16:00,
2013-08-23 16:21:00,73.3,70.2,30.01,ENE,60,1.0,1.0,90,0.05,,,0.45,WUHU216DAVISVP2,2013-08-23 20:21:00,
2013-08-23 16:26:00,74.1,70.6,30.01,East,80,1.0,1.0,89,0.05,,,0.45,WUHU216DAVISVP2,2013-08-23 20:26:00,
2013-08-23 16:31:00,75.4,71.9,30.01,SW,225,1.0,2.0,89,0.05,,,0.45,WUHU216DAVISVP2,2013-08-23 20:31:00,
2013-08-23 16:36:00,76.4,71.2,30.01,East,79,1.0,2.0,84,0.05,,,0.45,WUHU216DAVISVP2,2013-08-23 20:36:00,
2013-08-23 16:41:00,77.2,71.6,30.01,NW,315,1.7,3.0,83,0.05,,,0.45,WUHU216DAVISVP2,2013-08-23 20:41:00,
2013-08-23 16:46:00,77.4,70.4,30.01,West,274,3.0,4.0,79,0.05,,,0.45,WUHU216DAVISVP2,2013-08-23 20:46:00,
2013-08-23 16:51:00,77.2,71.6,30.01,West,269,2.0,4.0,83,0.05,,,0.45,WUHU216DAVISVP2,2013-08-23 20:51:00,
2013-08-23 16:56:00,76.3,70.1,30.01,WNW,285,1.1,4.0,81,0.02,,,0.45,WUHU216DAVISVP2,2013-08-23 20:56:00,
2013-08-23 17:01:00,75.6,70.5,30.01,WSW,250,2.0,4.0,84,0.01,,,0.45,WUHU216DAVISVP2,2013-08-23 21:01:00,
2013-08-23 17:06:00,75.2,70.1,30.01,West,259,1.0,4.0,84,0.00,,,0.45,WUHU216DAVISVP2,2013-08-23 21:06:00,
2013-08-23 17:11:00,75.2,70.8,30.01,WSW,250,1.0,4.0,86,0.00,,,0.45,WUHU216DAVISVP2,2013-08-23 21:11:00,
2013-08-23 17:16:00,76.0,71.2,30.01,West,275,1.1,3.0,85,0.00,,,0.45,WUHU216DAVISVP2,2013-08-23 21:16:00,
2013-08-23 17:21:00,76.7,69.3,30.01,NNE,30,1.4,2.0,78,0.00,,,0.45,WUHU216DAVISVP2,2013-08-23 21:21:00,
2013-08-23 17:26:00,77.3,69.5,30.01,NW,311,1.2,2.0,77,0.00,,,0.45,WUHU216DAVISVP2,2013-08-23 21:26:00,
2013-08-23 17:31:00,77.9,70.1,30.01,NW,315,1.0,2.0,77,0.00,,,0.45,WUHU216DAVISVP2,2013-08-23 21:31:00,
2013-08-23 17:36:00,77.9,69.7,30.01,NE,53,1.5,4.0,76,0.00,,,0.45,WUHU216DAVISVP2,2013-08-23 21:36:00,
2013-08-23 17:41:00,78.2,70.0,30.01,NE,46,1.1,4.0,76,0.00,,,0.45,WUHU216DAVISVP2,2013-08-23 21:41:00,
2013-08-23 17:46:00,79.0,71.2,30.01,NNE,30,1.2,4.0,77,0.00,,,0.45,WUHU216DAVISVP2,2013-08-23 21:46:00,
2013-08-23 17:51:00,79.0,68.8,30.01,ENE,72,1.5,4.0,71,0.00,,,0.45,WUHU216DAVISVP2,2013-08-23 21:51:00,
2013-08-23 17:56:00,79.1,69.7,30.01,NNW,332,1.0,3.0,73,0.00,,,0.45,WUHU216DAVISVP2,2013-08-23 21:56:00,
2013-08-23 18:01:00,79.1,68.9,30.01,ENE,78,2.0,3.0,71,0.00,,,0.45,WUHU216DAVISVP2,2013-08-23 22:01:00,
2013-08-23 18:06:00,78.3,67.7,30.01,East,89,2.0,5.0,70,0.00,,,0.45,WUHU216DAVISVP2,2013-08-23 22:06:00,
2013-08-23 18:11:00,77.8,67.2,30.01,ESE,113,6.0,6.0,70,0.00,,,0.45,WUHU216DAVISVP2,2013-08-23 22:11:00,
2013-08-23 18:16:00,77.6,67.9,30.01,NE,43,2.0,6.0,72,0.00,,,0.45,WUHU216DAVISVP2,2013-08-23 22:16:00,
2013-08-23 18:21:00,77.6,67.9,30.01,East,82,1.4,6.0,72,0.00,,,0.45,WUHU216DAVISVP2,2013-08-23 22:21:00,
2013-08-23 18:26:00,77.7,68.4,30.01,ESE,103,1.0,5.0,73,0.00,,,0.45,WUHU216DAVISVP2,2013-08-23 22:26:00,
2013-08-23 18:31:00,77.7,68.1,30.01,East,81,2.5,5.0,72,0.00,,,0.45,WUHU216DAVISVP2,2013-08-23 22:31:00,
2013-08-23 18:36:00,77.3,68.5,30.01,ENE,66,2.0,5.0,74,0.00,,,0.45,WUHU216DAVISVP2,2013-08-23 22:36:00,
2013-08-23 18:41:00,76.7,66.8,30.02,East,99,2.1,5.0,71,0.00,,,0.45,WUHU216DAVISVP2,2013-08-23 22:41:00,
2013-08-23 18:46:00,76.1,64.6,30.02,ENE,70,3.2,11.0,67,0.00,,,0.45,WUHU216DAVISVP2,2013-08-23 22:46:00,
2013-08-23 18:51:00,75.6,64.1,30.02,East,87,1.1,11.0,67,0.00,,,0.45,WUHU216DAVISVP2,2013-08-23 22:51:00,
2013-08-23 18:56:00,75.1,64.4,30.02,East,98,3.0,10.0,69,0.00,,,0.45,WUHU216DAVISVP2,2013-08-23 22:56:00,
2013-08-23 19:01:00,74.8,63.3,30.02,ESE,110,3.0,6.0,67,0.00,,,0.45,WUHU216DAVISVP2,2013-08-23 23:01:00,
2013-08-23 19:06:00,74.4,62.9,30.02,East,82,2.0,4.0,67,0.00,,,0.45,WUHU216DAVISVP2,2013-08-23 23:06:00,
2013-08-23 19:11:00,74.2,63.2,30.02,East,85,1.9,4.0,68,0.00,,,0.45,WUHU216DAVISVP2,2013-08-23 23:11:00,
2013-08-23 19:16:00,74.0,64.6,30.03,ENE,77,1.2,4.0,72,0.00,,,0.45,WUHU216DAVISVP2,2013-08-23 23:16:00,
2013-08-23 19:21:00,73.6,65.0,30.03,ENE,77,0.0,3.0,74,0.00,,,0.45,WUHU216DAVISVP2,2013-08-23 23:21:00,
2013-08-23 19:26:00,72.6,65.8,30.03,ENE,77,1.0,3.0,79,0.00,,,0.45,WUHU216DAVISVP2,2013-08-23 23:26:00,
2013-08-23 19:31:00,71.2,65.1,30.03,ENE,78,1.0,2.0,81,0.00,,,0.45,WUHU216DAVISVP2,2013-08-23 23:31:00,
2013-08-23 19:36:00,70.3,65.3,30.03,ENE,77,0.0,1.0,84,0.00,,,0.45,WUHU216DAVISVP2,2013-08-23 23:36:00,
2013-08-23 19:41:00,69.4,64.7,30.03,ENE,77,0.0,1.0,85,0.00,,,0.45,WUHU216DAVISVP2,2013-08-23 23:41:00,
2013-08-23 19:46:00,68.6,64.9,30.04,ENE,77,0.0,1.0,88,0.00,,,0.45,WUHU216DAVISVP2,2013-08-23 23:46:00,
2013-08-23 19:51:00,67.9,64.5,30.04,ENE,77,0.0,0.0,89,0.00,,,0.45,WUHU216DAVISVP2,2013-08-23 23:51:00,
2013-08-23 19:56:00,67.3,64.2,30.04,ENE,77,0.0,0.0,90,0.00,,,0.45,WUHU216DAVISVP2,2013-08-23 23:56:00,
2013-08-23 20:01:00,66.7,64.0,30.04,ENE,77,0.0,0.0,91,0.00,,,0.45,WUHU216DAVISVP2,2013-08-24 00:01:00,
2013-08-23 20:06:00,66.2,63.8,30.05,ENE,77,0.0,0.0,92,0.00,,,0.45,WUHU216DAVISVP2,2013-08-24 00:06:00,
2013-08-23 20:11:00,65.6,63.2,30.05,ENE,77,0.0,0.0,92,0.00,,,0.45,WUHU216DAVISVP2,2013-08-24 00:11:00,
2013-08-23 20:16:00,65.2,63.1,30.05,ENE,77,0.0,0.0,93,0.00,,,0.45,WUHU216DAVISVP2,2013-08-24 00:16:00,
2013-08-23 20:22:00,64.8,63.0,30.05,ENE,77,0.0,0.0,94,0.00,,,0.45,WUHU216DAVISVP2,2013-08-24 00:22:00,
2013-08-23 20:27:00,64.6,62.8,30.06,ENE,77,0.0,0.0,94,0.00,,,0.45,WUHU216DAVISVP2,2013-08-24 00:27:00,
2013-08-23 20:32:00,64.2,62.4,30.06,ENE,77,0.0,0.0,94,0.00,,,0.45,WUHU216DAVISVP2,2013-08-24 00:32:00,
2013-08-23 20:37:00,64.1,62.6,30.06,ENE,78,0.0,0.0,95,0.00,,,0.45,WUHU216DAVISVP2,2013-08-24 00:37:00,
2013-08-23 20:42:00,63.9,62.4,30.06,ENE,78,0.0,0.0,95,0.00,,,0.45,WUHU216DAVISVP2,2013-08-24 00:42:00,
2013-08-23 20:47:00,63.5,62.0,30.06,ENE,77,0.0,0.0,95,0.00,,,0.45,WUHU216DAVISVP2,2013-08-24 00:47:00,
2013-08-23 20:52:00,63.3,61.8,30.07,ENE,77,0.0,0.0,95,0.00,,,0.45,WUHU216DAVISVP2,2013-08-24 00:52:00,
2013-08-23 20:57:00,63.2,61.7,30.07,ENE,77,0.0,0.0,95,0.00,,,0.45,WUHU216DAVISVP2,2013-08-24 00:57:00,
2013-08-23 21:02:00,63.0,61.5,30.07,ENE,78,0.0,0.0,95,0.00,,,0.45,WUHU216DAVISVP2,2013-08-24 01:02:00,
2013-08-23 21:07:00,62.8,61.3,30.08,ENE,78,0.0,0.0,95,0.00,,,0.45,WUHU216DAVISVP2,2013-08-24 01:07:00,
2013-08-23 21:12:00,62.5,61.0,30.08,ENE,77,0.0,0.0,95,0.00,,,0.45,WUHU216DAVISVP2,2013-08-24 01:12:00,
2013-08-23 21:17:00,62.4,60.9,30.08,ENE,77,0.0,0.0,95,0.00,,,0.45,WUHU216DAVISVP2,2013-08-24 01:17:00,
2013-08-23 21:22:00,62.5,61.0,30.08,ENE,77,0.0,0.0,95,0.00,,,0.45,WUHU216DAVISVP2,2013-08-24 01:22:00,
2013-08-23 21:27:00,62.6,61.1,30.08,ENE,77,0.0,0.0,95,0.00,,,0.45,WUHU216DAVISVP2,2013-08-24 01:27:00,
2013-08-23 21:32:00,62.4,60.9,30.09,ENE,77,0.0,0.0,95,0.00,,,0.45,WUHU216DAVISVP2,2013-08-24 01:32:00,
2013-08-23 21:37:00,62.0,60.6,30.09,ENE,78,0.0,0.0,95,0.00,,,0.45,WUHU216DAVISVP2,2013-08-24 01:37:00,
2013-08-23 21:42:00,61.7,60.3,30.09,ENE,78,0.0,0.0,95,0.00,,,0.45,WUHU216DAVISVP2,2013-08-24 01:42:00,
2013-08-23 21:47:00,61.4,60.0,30.09,ENE,78,0.0,0.0,95,0.00,,,0.45,WUHU216DAVISVP2,2013-08-24 01:47:00,
2013-08-23 21:52:00,61.8,60.4,30.09,ENE,78,0.0,0.0,95,0.00,,,0.45,WUHU216DAVISVP2,2013-08-24 01:52:00,
2013-08-23 21:57:00,61.7,60.5,30.09,ENE,77,0.0,0.0,96,0.00,,,0.45,WUHU216DAVISVP2,2013-08-24 01:57:00,
2013-08-23 22:02:00,61.6,60.4,30.09,ENE,77,0.0,0.0,96,0.00,,,0.45,WUHU216DAVISVP2,2013-08-24 02:02:00,
2013-08-23 22:07:00,61.6,60.4,30.10,ENE,77,0.0,0.0,96,0.00,,,0.45,WUHU216DAVISVP2,2013-08-24 02:07:00,
2013-08-23 22:12:00,61.6,60.4,30.09,ENE,77,0.0,0.0,96,0.00,,,0.45,WUHU216DAVISVP2,2013-08-24 02:12:00,
2013-08-23 22:17:00,61.5,60.3,30.10,ENE,78,0.0,0.0,96,0.00,,,0.45,WUHU216DAVISVP2,2013-08-24 02:17:00,
2013-08-23 22:22:00,61.4,60.2,30.10,ENE,77,0.0,0.0,96,0.00,,,0.45,WUHU216DAVISVP2,2013-08-24 02:22:00,
2013-08-23 22:27:00,61.4,60.2,30.10,ENE,78,0.0,0.0,96,0.00,,,0.45,WUHU216DAVISVP2,2013-08-24 02:27:00,
2013-08-23 22:32:00,61.1,60.0,30.10,ENE,77,0.0,0.0,96,0.00,,,0.45,WUHU216DAVISVP2,2013-08-24 02:32:00,
2013-08-23 22:37:00,61.1,59.9,30.10,ENE,77,0.0,0.0,96,0.00,,,0.45,WUHU216DAVISVP2,2013-08-24 02:37:00,
2013-08-23 22:42:00,61.2,60.0,30.10,ENE,77,0.0,0.0,96,0.00,,,0.45,WUHU216DAVISVP2,2013-08-24 02:42:00,
2013-08-23 22:47:00,61.5,60.1,30.11,ENE,78,0.0,0.0,95,0.00,,,0.45,WUHU216DAVISVP2,2013-08-24 02:47:00,
2013-08-23 22:52:00,61.3,60.1,30.11,ENE,77,0.0,0.0,96,0.00,,,0.45,WUHU216DAVISVP2,2013-08-24 02:52:00,
2013-08-23 22:57:00,60.9,59.7,30.11,ENE,77,0.0,0.0,96,0.00,,,0.45,WUHU216DAVISVP2,2013-08-24 02:57:00,
2013-08-23 23:02:00,61.2,60.0,30.11,ENE,78,0.0,0.0,96,0.00,,,0.45,WUHU216DAVISVP2,2013-08-24 03:02:00,
2013-08-23 23:07:00,61.3,59.8,30.11,ENE,77,0.0,0.0,95,0.00,,,0.45,WUHU216DAVISVP2,2013-08-24 03:07:00,
2013-08-23 23:12:00,61.4,59.9,30.11,ENE,78,0.0,0.0,95,0.00,,,0.45,WUHU216DAVISVP2,2013-08-24 03:12:00,
2013-08-23 23:17:00,61.5,60.0,30.11,ENE,77,0.0,0.0,95,0.00,,,0.45,WUHU216DAVISVP2,2013-08-24 03:17:00,
2013-08-23 23:22:00,61.6,60.1,30.12,ENE,77,0.0,0.0,95,0.00,,,0.45,WUHU216DAVISVP2,2013-08-24 03:22:00,
2013-08-23 23:27:00,61.7,60.2,30.12,ENE,78,0.0,0.0,95,0.00,,,0.45,WUHU216DAVISVP2,2013-08-24 03:27:00,
2013-08-23 23:32:00,62.1,60.6,30.12,ENE,77,0.0,0.0,95,0.00,,,0.45,WUHU216DAVISVP2,2013-08-24 03:32:00,
2013-08-23 23:37:00,62.2,60.7,30.12,ENE,77,0.0,0.0,95,0.00,,,0.45,WUHU216DAVISVP2,2013-08-24 03:37:00,
2013-08-23 23:42:00,62.3,60.8,30.12,ENE,78,0.0,0.0,95,0.00,,,0.45,WUHU216DAVISVP2,2013-08-24 03:42:00,
2013-08-23 23:47:00,62.4,60.9,30.12,ENE,77,0.0,0.0,95,0.00,,,0.45,WUHU216DAVISVP2,2013-08-24 03:47:00,
2013-08-23 23:52:00,62.5,61.0,30.12,ENE,77,0.0,0.0,95,0.00,,,0.45,WUHU216DAVISVP2,2013-08-24 03:52:00,
2013-08-23 23:57:00,62.6,61.1,30.12,ENE,77,0.0,0.0,95,0.00,,,0.45,WUHU216DAVISVP2,2013-08-24 03:57:00,